< < Back
Terminal Aerodrome Forecast


Current Version              Previous Versions:   1  2  3  4  5  6  7  8  9  

Terminal Aerodrome Forecast

472
FTUS42 KTAE 291029 AAA
TAFDHN
TAF AMD
KDHN 291029Z 2910/3006 31003KT P6SM SCT003
      TEMPO 2911/2913 3SM BR
     FM291300 18005KT P6SM SCT020
     FM291800 20009KT P6SM SCT040
     FM300000 22004KT P6SM SCT250=

Latest METAR

432
SAUS70 KWBC 300100 RRK
MTRDHN
METAR KDHN 300053Z 22009KT 10SM BKN050 28/19 A2996 RMK AO2 SLP141
T02780189


USA.gov is the U.S. government's official web portal to all federal, state and local government web resources and services.